createdAt,value
2023-06-11T00:00:32.343Z,97888.20
2023-06-11T00:02:59.767Z,97889.27
2023-06-11T00:05:30.646Z,97890.95
2023-06-11T00:08:01.801Z,97892.60
2023-06-11T00:10:29.333Z,97891.55
2023-06-11T00:12:56.906Z,97894.61
2023-06-11T00:15:25.053Z,97894.27
2023-06-11T00:17:52.294Z,97892.46
2023-06-11T00:20:21.573Z,97891.08
2023-06-11T00:22:48.825Z,97889.60
2023-06-11T00:25:16.564Z,97888.20
2023-06-11T00:27:43.897Z,97891.73
2023-06-11T00:30:12.420Z,97890.74
2023-06-11T00:32:40.668Z,97890.56
2023-06-11T00:35:09.989Z,97890.47
2023-06-11T00:37:38.756Z,97888.63
2023-06-11T00:40:09.215Z,97887.70
2023-06-11T00:42:37.019Z,97890.10
2023-06-11T00:45:06.672Z,97889.04
2023-06-11T00:47:40.680Z,97888.70
2023-06-11T00:50:09.502Z,97886.81
2023-06-11T00:52:37.573Z,97885.02
2023-06-11T00:55:05.507Z,97886.36
2023-06-11T00:58:51.571Z,97880.23
2023-06-11T01:01:27.088Z,97881.45
2023-06-11T01:03:57.877Z,97879.95
2023-06-11T01:06:30.098Z,97880.54
2023-06-11T01:08:59.185Z,97880.97
2023-06-11T01:11:36.902Z,97876.92
2023-06-11T01:14:08.844Z,97880.20
2023-06-11T01:16:48.627Z,97877.42
2023-06-11T01:19:46.318Z,97875.32
2023-06-11T01:22:19.367Z,97874.80
2023-06-11T01:25:04.840Z,97879.02
2023-06-11T01:27:59.743Z,97878.80
2023-06-11T01:30:30.436Z,97876.27
2023-06-11T01:32:58.725Z,97880.48
2023-06-11T01:35:31.538Z,97883.89
2023-06-11T01:38:01.187Z,97882.30
2023-06-11T01:40:36.683Z,97880.55
2023-06-11T01:43:05.822Z,97881.23
2023-06-11T01:45:34.776Z,97877.48
2023-06-11T01:48:02.966Z,97877.30
2023-06-11T01:50:31.652Z,97877.59
2023-06-11T01:52:59.741Z,97877.63
2023-06-11T01:55:29.676Z,97874.89
2023-06-11T01:57:57.795Z,97873.54
2023-06-11T02:00:25.875Z,97873.07
2023-06-11T02:02:54.179Z,97879.48
2023-06-11T02:05:22.763Z,97877.70
2023-06-11T02:07:51.406Z,97878.08
2023-06-11T02:10:19.495Z,97879.38
2023-06-11T02:12:47.599Z,97882.85
2023-06-11T02:15:16.035Z,97886.10
2023-06-11T02:17:44.190Z,97885.45
2023-06-11T02:20:15.369Z,97885.19
2023-06-11T02:22:44.159Z,97891.69
2023-06-11T02:25:12.465Z,97887.96
2023-06-11T02:27:41.152Z,97891.77
2023-06-11T02:30:09.702Z,97892.15
2023-06-11T02:32:37.869Z,97892.41
2023-06-11T02:35:06.397Z,97890.30
2023-06-11T02:37:34.477Z,97894.77
2023-06-11T02:40:02.567Z,97892.40
2023-06-11T02:42:30.650Z,97892.70
2023-06-11T02:44:59.064Z,97895.70
2023-06-11T02:47:27.076Z,97891.46
2023-06-11T02:49:55.093Z,97893.93
2023-06-11T02:52:23.505Z,97894.19
2023-06-11T02:54:51.666Z,97891.63
2023-06-11T02:57:19.799Z,97888.08
2023-06-11T02:59:47.930Z,97888.77
2023-06-11T03:02:16.485Z,97889.55
2023-06-11T03:04:44.836Z,97888.76
2023-06-11T03:07:13.473Z,97890.06
2023-06-11T03:09:41.650Z,97890.60
2023-06-11T03:12:10.291Z,97888.80
2023-06-11T03:14:39.657Z,97892.66
2023-06-11T03:17:07.686Z,97894.90
2023-06-11T03:19:35.870Z,97892.42
2023-06-11T03:22:05.022Z,97896.27
2023-06-11T03:24:33.646Z,97896.52
2023-06-11T03:27:10.327Z,97898.21
2023-06-11T03:29:38.728Z,97898.72
2023-06-11T03:32:07.982Z,97896.74
2023-06-11T03:34:37.399Z,97900.52
2023-06-11T03:37:05.795Z,97901.09
2023-06-11T03:43:00.907Z,97904.57
2023-06-11T03:45:30.443Z,97902.50
2023-06-11T03:47:59.683Z,97904.73
2023-06-11T03:50:27.868Z,97905.33
2023-06-11T03:52:56.012Z,97901.23
2023-06-11T03:55:24.330Z,97901.80
2023-06-11T03:57:52.706Z,97904.55
2023-06-11T04:00:21.041Z,97904.91
2023-06-11T04:02:49.363Z,97909.38
2023-06-11T04:05:18.103Z,97913.33
2023-06-11T04:07:52.247Z,97907.89
2023-06-11T04:10:20.922Z,97912.80
2023-06-11T04:12:49.796Z,97913.59
2023-06-11T04:15:17.848Z,97913.36
2023-06-11T04:17:47.073Z,97912.09
2023-06-11T04:20:16.393Z,97909.96
2023-06-11T04:22:44.569Z,97911.48
2023-06-11T04:25:13.803Z,97912.36
2023-06-11T04:27:42.285Z,97917.33
2023-06-11T04:30:14.470Z,97915.44
2023-06-11T04:32:44.004Z,97916.92
2023-06-11T04:35:15.809Z,97917.47
2023-06-11T04:37:46.863Z,97916.58
2023-06-11T04:40:22.370Z,97918.81
2023-06-11T04:42:50.963Z,97920.48
2023-06-11T04:45:22.497Z,97921.80
2023-06-11T04:47:51.696Z,97926.64
2023-06-11T04:50:22.641Z,97925.23
2023-06-11T04:52:58.138Z,97923.39
2023-06-11T04:55:27.998Z,97924.82
2023-06-11T04:57:58.670Z,97924.42
2023-06-11T05:00:31.422Z,97928.13
2023-06-11T05:03:03.646Z,97930.02
2023-06-11T05:05:34.709Z,97928.97
2023-06-11T05:08:03.700Z,97930.91
2023-06-11T05:10:32.056Z,97931.31
2023-06-11T05:13:02.433Z,97932.29
2023-06-11T05:15:33.553Z,97932.02
2023-06-11T05:18:02.170Z,97932.75
2023-06-11T05:20:31.469Z,97927.73
2023-06-11T05:23:00.897Z,97932.27
2023-06-11T05:25:31.800Z,97933.14
2023-06-11T05:28:02.844Z,97935.17
2023-06-11T05:30:38.217Z,97935.80
2023-06-11T05:33:08.628Z,97940.09
2023-06-11T05:35:37.664Z,97935.03
2023-06-11T05:38:07.685Z,97938.07
2023-06-11T05:40:40.245Z,97937.77
2023-06-11T05:43:08.349Z,97941.98
2023-06-11T05:45:37.364Z,97941.89
2023-06-11T05:48:07.642Z,97945.36
2023-06-11T05:50:38.190Z,97944.38
2023-06-11T05:53:06.252Z,97949.31
2023-06-11T05:55:34.560Z,97947.31
2023-06-11T05:58:03.601Z,97952.30
2023-06-11T06:00:31.694Z,97951.41
2023-06-11T06:03:00.055Z,97953.65
2023-06-11T06:05:29.880Z,97959.45
2023-06-11T06:07:58.230Z,97960.70
2023-06-11T06:10:26.822Z,97965.09
2023-06-11T06:12:55.229Z,97965.65
2023-06-11T06:15:23.411Z,97963.70
2023-06-11T06:17:51.775Z,97966.31
2023-06-11T06:20:26.663Z,97965.73
2023-06-11T06:22:55.383Z,97963.73
2023-06-11T06:25:27.030Z,97970.65
2023-06-11T06:27:55.435Z,97970.33
2023-06-11T06:30:23.713Z,97973.67
2023-06-11T06:32:51.776Z,97975.70
2023-06-11T06:35:21.229Z,97978.36
2023-06-11T06:37:49.435Z,97982.29
2023-06-11T06:40:18.296Z,97982.12
2023-06-11T06:48:57.452Z,97984.16
2023-06-11T06:51:25.816Z,97987.43
2023-06-11T06:53:54.284Z,97990.06
2023-06-11T06:56:23.423Z,97990.27
2023-06-11T06:58:51.700Z,97990.06
2023-06-11T07:01:20.172Z,97995.58
2023-06-11T07:03:48.546Z,97996.37
2023-06-11T07:06:17.569Z,97997.73
2023-06-11T07:08:46.930Z,97999.15
2023-06-11T07:11:16.960Z,97999.52
2023-06-11T07:13:47.055Z,98004.55
2023-06-11T07:16:16.171Z,98003.15
2023-06-11T07:18:52.420Z,98004.28
2023-06-11T07:21:20.601Z,98003.64
2023-06-11T07:23:48.925Z,98007.86
2023-06-11T07:26:19.502Z,98009.58
2023-06-11T07:28:48.055Z,98009.36
2023-06-11T07:31:16.392Z,98006.80
2023-06-11T07:33:45.708Z,98010.46
2023-06-11T07:36:13.924Z,98009.58
2023-06-11T07:38:44.088Z,98016.57
2023-06-11T07:41:13.262Z,98015.41
2023-06-11T07:43:41.396Z,98019.64
2023-06-11T07:46:10.584Z,98018.19
2023-06-11T07:48:43.228Z,98018.08
2023-06-11T07:51:11.556Z,98019.58
2023-06-11T07:53:40.220Z,98021.02
2023-06-11T07:56:09.200Z,98019.80
2023-06-11T07:58:37.645Z,98019.70
2023-06-11T08:01:05.667Z,98025.14
2023-06-11T08:03:34.951Z,98026.31
2023-06-11T08:06:03.031Z,98031.35
2023-06-11T08:08:31.391Z,98028.72
2023-06-11T08:11:00.627Z,98030.75
